Time;durP1;ratioP1;P1;durP2;ratioP2;P2;SDS_P1;SDS_P2;PMS_P1;PMS_P2;Temp;Humidity;BMP_temperature;BMP_pressure;BME280_temperature;BME280_humidity;BME280_pressure;Samples;Min_cycle;Max_cycle;Signal;HPM_P1;HPM_P2
2021/06/06 00:01:43;;;;;;;6.57;1.90;;;;;;;13.91;58.41;101938.59;3593919;40;20028;-77
2021/06/06 00:04:16;;;;;;;4.05;2.17;;;;;;;13.89;58.12;101940.34;3583701;40;20068;-78
2021/06/06 00:07:03;;;;;;;5.40;2.10;;;;;;;13.82;58.05;101938.75;3594742;40;20032;-77
2021/06/06 00:09:32;;;;;;;5.80;1.88;;;;;;;13.77;58.64;101942.28;3581705;40;20041;-78
2021/06/06 00:12:04;;;;;;;5.13;1.48;;;;;;;13.77;58.69;101942.28;3588194;40;20065;-78
2021/06/06 00:14:35;;;;;;;7.25;1.77;;;;;;;13.75;59.07;101943.22;3592558;40;20082;-77
2021/06/06 00:17:10;;;;;;;5.20;1.75;;;;;;;13.67;57.89;101935.47;3596517;40;20052;-77
2021/06/06 00:19:39;;;;;;;3.75;1.63;;;;;;;13.68;58.73;101946.81;3596848;40;20033;-77
2021/06/06 00:22:07;;;;;;;4.65;1.50;;;;;;;13.64;58.70;101946.03;3596453;40;20033;-77
2021/06/06 00:24:37;;;;;;;6.10;1.95;;;;;;;13.59;59.41;101939.97;3596256;40;20025;-78
2021/06/06 00:27:05;;;;;;;3.17;1.38;;;;;;;13.56;58.57;101939.16;3596371;40;20040;-78
2021/06/06 00:29:32;;;;;;;5.57;2.10;;;;;;;13.54;59.20;101944.44;3600531;40;20032;-79
2021/06/06 00:31:59;;;;;;;10.13;2.20;;;;;;;13.48;59.31;101941.88;3590154;40;20051;-77
2021/06/06 00:34:27;;;;;;;4.85;1.38;;;;;;;13.45;59.24;101941.94;3596724;40;20036;-78
2021/06/06 00:36:55;;;;;;;4.95;1.60;;;;;;;13.42;59.91;101940.22;3595180;40;20033;-77
2021/06/06 00:39:24;;;;;;;6.80;1.80;;;;;;;13.38;59.91;101949.03;3585813;40;20028;-77
2021/06/06 00:41:54;;;;;;;5.05;2.17;;;;;;;13.36;59.93;101942.06;3591418;40;20055;-77
2021/06/06 00:44:24;;;;;;;5.50;2.03;;;;;;;13.31;60.13;101944.75;3599173;40;20727;-77
2021/06/06 00:46:53;;;;;;;4.93;2.05;;;;;;;13.28;59.24;101949.16;3590686;40;20365;-77
2021/06/06 00:49:22;;;;;;;6.65;1.90;;;;;;;13.26;60.26;101951.81;3592008;40;20061;-78
2021/06/06 00:51:57;;;;;;;6.55;1.77;;;;;;;13.24;60.21;101954.47;3580119;40;20033;-77
2021/06/06 00:54:31;;;;;;;7.63;1.85;;;;;;;13.21;59.86;101957.13;3577869;40;20301;-77
2021/06/06 00:57:14;;;;;;;6.20;2.45;;;;;;;13.18;58.89;101962.41;3591979;40;20078;-77
2021/06/06 01:00:08;;;;;;;5.53;1.77;;;;;;;13.14;58.35;101960.69;3583240;40;20043;-77
2021/06/06 01:02:43;;;;;;;4.10;1.67;;;;;;;13.10;59.79;101953.75;3579111;40;20115;-78
2021/06/06 01:05:28;;;;;;;5.53;2.28;;;;;;;13.08;59.36;101960.78;3585882;40;20036;-77
2021/06/06 01:07:57;;;;;;;5.72;1.85;;;;;;;13.02;60.34;101960.84;3599691;40;20025;-78
2021/06/06 01:10:27;;;;;;;7.82;2.17;;;;;;;13.01;60.48;101969.59;3594722;40;20044;-78
2021/06/06 01:13:09;;;;;;;6.35;1.83;;;;;;;12.96;59.63;101956.53;3585635;40;20072;-77
2021/06/06 01:16:02;;;;;;;4.28;1.45;;;;;;;12.96;58.79;101967.03;3596930;40;20033;-78
2021/06/06 01:18:37;;;;;;;6.40;1.65;;;;;;;12.90;59.63;101961.88;3599476;40;20089;-78
2021/06/06 01:21:08;;;;;;;5.28;2.08;;;;;;;12.88;60.48;101966.28;3595500;40;20061;-78
2021/06/06 01:23:55;;;;;;;7.22;2.03;;;;;;;12.84;58.99;101961.09;3592393;40;20716;-77
2021/06/06 01:26:46;;;;;;;6.10;2.50;;;;;;;12.84;59.34;101971.56;3591117;40;20338;-78
2021/06/06 01:29:27;;;;;;;7.43;2.28;;;;;;;12.80;60.17;101964.63;3582520;40;20047;-77
2021/06/06 01:32:04;;;;;;;6.50;2.58;;;;;;;12.72;61.02;101957.72;3584418;40;20040;-78
2021/06/06 01:34:33;;;;;;;6.38;1.88;;;;;;;12.64;60.84;101954.31;3591158;40;20086;-77
2021/06/06 01:37:10;;;;;;;6.15;2.00;;;;;;;12.67;60.20;101966.50;3586890;40;20747;-77
2021/06/06 01:39:45;;;;;;;5.25;2.05;;;;;;;12.66;61.04;101973.50;3580275;40;20017;-78
2021/06/06 01:42:40;;;;;;;6.18;1.60;;;;;;;12.63;58.96;101984.03;3602788;40;20038;-77
2021/06/06 01:45:20;;;;;;;7.55;1.70;;;;;;;12.60;61.01;101975.31;3597265;39;20040;-78
2021/06/06 01:47:50;;;;;;;5.32;1.60;;;;;;;12.57;61.06;101973.63;3591296;40;20051;-77
2021/06/06 01:50:22;;;;;;;5.15;1.67;;;;;;;12.53;61.28;101977.16;3594637;40;20048;-78
2021/06/06 01:52:53;;;;;;;3.85;1.40;;;;;;;12.52;61.23;101971.91;3601912;40;20120;-77
2021/06/06 01:55:24;;;;;;;5.03;1.63;;;;;;;12.50;61.63;101977.19;3590736;40;20056;-78
2021/06/06 01:57:55;;;;;;;7.32;1.70;;;;;;;12.49;61.39;101975.44;3594069;40;20048;-77
2021/06/06 02:00:38;;;;;;;4.00;1.60;;;;;;;12.45;61.29;101968.50;3593964;40;20085;-78
2021/06/06 02:03:24;;;;;;;3.08;1.40;;;;;;;12.43;61.21;101970.28;3588692;40;20304;-77
2021/06/06 02:05:57;;;;;;;5.55;2.00;;;;;;;12.35;60.89;101962.47;3589484;40;20049;-77
2021/06/06 02:08:34;;;;;;;5.22;1.95;;;;;;;12.32;61.34;101959.03;3582399;40;20110;-78
2021/06/06 02:11:15;;;;;;;10.53;2.50;;;;;;;12.32;60.74;101972.13;3586125;40;20029;-77
2021/06/06 02:13:51;;;;;;;8.98;2.70;;;;;;;12.27;61.92;101968.69;3577288;40;20091;-78
2021/06/06 02:16:30;;;;;;;4.57;1.92;;;;;;;12.23;60.84;101966.97;3576488;40;20413;-78
2021/06/06 02:19:06;;;;;;;4.90;2.10;;;;;;;12.19;61.53;101964.38;3577693;40;20378;-77
2021/06/06 02:21:37;;;;;;;6.18;1.95;;;;;;;12.17;61.70;101979.25;3580988;40;20339;-78
2021/06/06 02:24:05;;;;;;;;;;;;;;;12.16;58.87;101977.47;3589428;40;20504;-78
2021/06/06 02:26:42;;;;;;;2.50;1.15;;;;;;;12.11;61.35;101976.66;3582036;40;19947;-77
2021/06/06 02:29:20;;;;;;;5.05;1.52;;;;;;;12.07;61.74;101972.34;3585981;40;20758;-77
2021/06/06 02:32:01;;;;;;;7.20;2.03;;;;;;;12.06;61.07;101986.28;3586559;40;20040;-77
2021/06/06 02:34:44;;;;;;;5.13;1.90;;;;;;;12.02;61.12;101989.84;3576994;40;20028;-78
2021/06/06 02:37:21;;;;;;;5.07;2.05;;;;;;;11.95;61.82;101983.78;3584448;40;20036;-77
2021/06/06 02:39:54;;;;;;;6.93;2.20;;;;;;;11.97;62.68;101986.41;3585888;40;20086;-77
2021/06/06 02:42:34;;;;;;;6.00;2.30;;;;;;;11.96;61.36;101989.88;3589471;40;20617;-78
2021/06/06 02:45:23;;;;;;;5.55;2.05;;;;;;;11.93;61.04;101989.91;3586926;40;20037;-77
2021/06/06 02:47:59;;;;;;;6.00;2.42;;;;;;;11.91;62.77;101991.66;3584142;40;20065;-77
2021/06/06 02:50:37;;;;;;;6.10;1.80;;;;;;;11.86;62.01;101988.19;3585259;40;20057;-76
2021/06/06 02:53:22;;;;;;;16.77;4.07;;;;;;;11.86;61.25;101988.19;3576924;40;20037;-78
2021/06/06 02:55:58;;;;;;;5.22;2.05;;;;;;;11.83;62.59;101988.25;3586626;40;20301;-78
2021/06/06 02:58:39;;;;;;;5.47;2.40;;;;;;;11.80;62.56;101990.84;3580129;40;20041;-78
2021/06/06 03:01:16;;;;;;;7.00;2.60;;;;;;;11.77;62.28;101983.91;3590079;40;20029;-77
2021/06/06 03:03:45;;;;;;;6.32;2.00;;;;;;;11.73;63.09;101992.63;3593973;40;20029;-77
2021/06/06 03:06:51;;;;;;;6.00;2.15;;;;;;;11.74;61.56;101991.75;3585257;40;20033;-77
2021/06/06 03:09:21;;;;;;;7.13;1.85;;;;;;;11.69;63.10;101988.31;3579942;40;20055;-77
2021/06/06 03:12:03;;;;;;;7.13;2.53;;;;;;;11.67;63.09;101990.94;3585516;40;20386;-77
2021/06/06 03:14:37;;;;;;;7.40;2.58;;;;;;;11.66;63.66;101985.72;3592935;40;20033;-78
2021/06/06 03:17:16;;;;;;;6.97;2.08;;;;;;;11.65;62.86;101979.59;3587403;40;20029;-77
2021/06/06 03:19:49;;;;;;;6.93;2.55;;;;;;;11.59;64.19;101979.63;3582994;40;20037;-77
2021/06/06 03:22:47;;;;;;;6.57;2.65;;;;;;;11.60;62.00;101991.84;3586369;40;20528;-77
2021/06/06 03:25:35;;;;;;;6.00;2.28;;;;;;;11.55;62.35;101983.16;3579715;40;20045;-78
2021/06/06 03:28:06;;;;;;;5.25;2.13;;;;;;;11.54;64.05;101986.66;3593922;40;20069;-78
2021/06/06 03:30:43;;;;;;;12.00;3.25;;;;;;;11.52;63.64;101988.41;3595708;40;20035;-77
2021/06/06 03:33:53;;;;;;;6.85;2.58;;;;;;;11.49;61.99;101980.56;3586987;40;20508;-78
2021/06/06 03:36:46;;;;;;;6.97;2.53;;;;;;;11.47;62.79;101990.19;3561151;40;20090;-77
2021/06/06 03:39:38;;;;;;;8.50;2.85;;;;;;;11.42;63.84;101991.97;3575965;40;20735;-78
2021/06/06 03:42:10;;;;;;;7.68;2.35;;;;;;;11.40;64.78;101993.69;3572906;40;20434;-78
2021/06/06 03:45:09;;;;;;;6.20;2.33;;;;;;;11.40;62.56;101998.94;3573596;40;20033;-77
2021/06/06 03:47:42;;;;;;;6.93;2.22;;;;;;;11.36;63.73;102000.72;3589304;40;20033;-78
2021/06/06 03:50:14;;;;;;;6.70;2.28;;;;;;;11.34;64.16;101998.97;3583060;40;20110;-77
2021/06/06 03:52:48;;;;;;;5.20;2.25;;;;;;;11.30;65.02;101997.25;3574063;40;20151;-77
2021/06/06 03:55:16;;;;;;;9.80;3.30;;;;;;;11.28;65.37;102006.84;3585291;40;20037;-77
2021/06/06 03:57:51;;;;;;;6.97;2.38;;;;;;;11.24;65.29;102006.00;3585230;40;20036;-77
2021/06/06 04:00:28;;;;;;;5.70;2.20;;;;;;;11.23;64.30;102006.00;3580262;40;20029;-77
2021/06/06 04:03:01;;;;;;;6.35;2.35;;;;;;;11.20;64.72;102006.00;3597703;40;20032;-77
2021/06/06 04:05:36;;;;;;;6.57;1.85;;;;;;;11.15;65.22;102004.31;3591218;40;20065;-77
2021/06/06 04:08:07;;;;;;;8.32;2.72;;;;;;;11.14;65.71;102006.91;3594420;40;20036;-77
2021/06/06 04:10:42;;;;;;;7.38;3.03;;;;;;;11.14;65.85;102007.78;3599258;40;20036;-77
2021/06/06 04:13:13;;;;;;;9.52;2.55;;;;;;;11.10;66.12;102007.78;3589780;40;20079;-77
2021/06/06 04:15:42;;;;;;;7.38;2.58;;;;;;;11.10;65.16;102013.91;3585674;40;20040;-78
2021/06/06 04:19:14;;;;;;;5.80;1.98;;;;;;;11.10;63.50;102015.63;3592373;40;20032;-77
2021/06/06 04:21:43;;;;;;;7.50;2.60;;;;;;;11.06;66.00;102008.69;3584295;40;20468;-77
2021/06/06 04:24:13;;;;;;;8.05;2.67;;;;;;;11.01;66.63;102006.09;3587061;40;20482;-77
2021/06/06 04:26:45;;;;;;;7.72;2.60;;;;;;;11.02;66.11;102012.19;3587548;40;20087;-77
2021/06/06 04:29:15;;;;;;;7.53;2.58;;;;;;;10.99;65.81;102012.19;3591348;40;20047;-77
2021/06/06 04:31:45;;;;;;;7.72;3.17;;;;;;;10.98;66.39;102011.31;3592693;40;20075;-77
2021/06/06 04:34:25;;;;;;;7.15;2.20;;;;;;;10.99;64.97;102017.41;3595676;40;20029;-77
2021/06/06 04:36:57;;;;;;;9.05;2.65;;;;;;;11.00;65.86;102021.75;3575344;40;20036;-77
2021/06/06 04:39:28;;;;;;;6.20;2.60;;;;;;;10.96;66.67;102015.69;3572727;40;20043;-77
2021/06/06 04:41:57;;;;;;;7.68;2.70;;;;;;;10.94;66.13;102013.94;3595399;40;20029;-78
2021/06/06 04:44:30;;;;;;;10.63;3.03;;;;;;;10.95;66.39;102015.69;3588988;40;20032;-77
2021/06/06 04:46:57;;;;;;;8.35;1.90;;;;;;;10.95;66.39;102021.81;3592476;40;20117;-77
2021/06/06 04:49:28;;;;;;;6.88;2.65;;;;;;;10.96;66.61;102023.53;3601665;40;20028;-77
2021/06/06 04:51:58;;;;;;;5.93;2.65;;;;;;;10.95;66.59;102027.03;3586454;40;20248;-77
2021/06/06 04:54:33;;;;;;;7.80;2.45;;;;;;;10.98;67.50;102026.13;3584746;40;20036;-77
2021/06/06 04:57:07;;;;;;;7.88;2.60;;;;;;;10.98;66.89;102024.38;3594095;40;20033;-78
2021/06/06 04:59:36;;;;;;;8.88;2.15;;;;;;;10.99;66.92;102035.72;3599189;40;20037;-77
2021/06/06 05:02:09;;;;;;;7.03;2.40;;;;;;;11.00;67.08;102030.50;3588270;40;20028;-77
2021/06/06 05:04:41;;;;;;;6.03;2.45;;;;;;;10.96;67.73;102028.75;3591259;40;20047;-77
2021/06/06 05:07:12;;;;;;;6.75;2.35;;;;;;;10.99;67.66;102028.75;3588612;40;20041;-76
2021/06/06 05:09:42;;;;;;;8.77;2.75;;;;;;;10.98;68.17;102029.63;3572852;40;20036;-77
2021/06/06 05:12:21;;;;;;;8.40;2.20;;;;;;;11.01;66.86;102032.25;3576564;40;20390;-77
2021/06/06 05:14:49;;;;;;;6.30;2.10;;;;;;;10.99;68.24;102026.13;3585109;40;20029;-77
2021/06/06 05:17:18;;;;;;;;;;;;;;;11.05;64.04;102035.69;3578710;40;20037;-77
2021/06/06 05:19:54;;;;;;;8.18;2.38;;;;;;;11.03;67.93;102035.69;3600385;40;20255;-77
2021/06/06 05:22:23;;;;;;;6.55;2.42;;;;;;;11.05;68.22;102035.69;3584917;40;20305;-77
2021/06/06 05:24:53;;;;;;;5.82;2.33;;;;;;;11.03;68.53;102035.69;3579002;40;20029;-77
2021/06/06 05:27:24;;;;;;;7.70;2.75;;;;;;;11.05;68.55;102031.34;3576581;40;20040;-78
2021/06/06 05:29:52;;;;;;;6.53;2.88;;;;;;;11.09;68.91;102035.69;3583946;40;20664;-77
2021/06/06 05:32:20;;;;;;;7.35;2.35;;;;;;;11.12;68.77;102035.69;3584998;40;20099;-77
2021/06/06 05:34:49;;;;;;;6.32;2.47;;;;;;;11.15;68.17;102043.53;3578796;40;20033;-77
2021/06/06 05:37:17;;;;;;;8.45;2.67;;;;;;;11.16;68.36;102039.16;3584825;40;20084;-77
2021/06/06 05:39:44;;;;;;;5.28;2.13;;;;;;;11.19;69.27;102046.97;3584972;40;20032;-77
2021/06/06 05:42:12;;;;;;;6.45;2.22;;;;;;;11.24;69.15;102047.81;3586040;40;20036;-77
2021/06/06 05:44:41;;;;;;;8.10;3.40;;;;;;;11.27;69.17;102049.56;3581879;40;20053;-78
2021/06/06 05:47:15;;;;;;;7.55;2.45;;;;;;;11.33;68.09;102054.78;3589945;40;20032;-78
2021/06/06 05:49:42;;;;;;;6.45;2.42;;;;;;;11.34;69.27;102057.38;3587513;40;20115;-77
2021/06/06 05:52:17;;;;;;;6.45;2.92;;;;;;;11.39;69.26;102057.34;3583483;40;20036;-78
2021/06/06 05:54:44;;;;;;;5.47;2.60;;;;;;;11.42;69.53;102065.19;3593721;40;20040;-78
2021/06/06 05:57:19;;;;;;;7.90;2.72;;;;;;;11.49;68.22;102061.66;3580443;40;20037;-78
2021/06/06 05:59:46;;;;;;;6.60;2.83;;;;;;;11.52;69.53;102063.41;3590013;40;20087;-78
2021/06/06 06:02:17;;;;;;;8.30;2.50;;;;;;;11.53;69.35;102052.94;3585267;40;20585;-78
2021/06/06 06:04:44;;;;;;;8.50;2.80;;;;;;;11.55;69.79;102056.41;3584286;40;20037;-78
2021/06/06 06:07:11;;;;;;;6.70;2.90;;;;;;;11.60;70.06;102059.84;3595422;40;20043;-78
2021/06/06 06:09:39;;;;;;;9.07;3.50;;;;;;;11.67;70.47;102056.34;3580677;40;20061;-78
2021/06/06 06:12:07;;;;;;;10.00;2.40;;;;;;;11.70;70.20;102051.09;3587426;40;20041;-78
2021/06/06 06:14:34;;;;;;;10.27;3.05;;;;;;;11.70;70.32;102051.09;3595940;40;20098;-78
2021/06/06 06:17:05;;;;;;;12.50;3.10;;;;;;;11.83;69.71;102064.16;3586964;40;20333;-78
2021/06/06 06:19:42;;;;;;;10.95;2.90;;;;;;;11.89;69.02;102064.09;3602994;40;20030;-78
2021/06/06 06:22:10;;;;;;;7.82;2.85;;;;;;;11.90;70.40;102061.47;3588507;40;20041;-78
2021/06/06 06:24:36;;;;;;;;;;;;;;;12.01;65.77;102068.38;3599466;40;20097;-78
2021/06/06 06:27:11;;;;;;;7.43;2.45;;;;;;;12.03;68.42;102069.25;3595045;40;19956;-78
2021/06/06 06:30:07;;;;;;;7.70;2.50;;;;;;;12.09;70.01;102077.06;3599805;40;20056;-79
2021/06/06 06:32:40;;;;;;;9.15;2.47;;;;;;;12.09;70.47;102070.06;3580633;40;20029;-78
2021/06/06 06:35:09;;;;;;;10.83;3.53;;;;;;;12.14;69.90;102078.78;3594241;40;20865;-78
2021/06/06 06:37:41;;;;;;;9.85;3.17;;;;;;;12.22;69.43;102080.47;3593342;40;20137;-78
2021/06/06 06:40:10;;;;;;;6.68;2.55;;;;;;;12.27;70.36;102073.47;3593609;40;20065;-78
2021/06/06 06:43:06;;;;;;;12.60;3.10;;;;;;;12.34;68.20;102075.13;3592204;40;20129;-78
2021/06/06 06:45:38;;;;;;;7.63;2.70;;;;;;;12.36;70.56;102068.13;3599901;40;20028;-78
2021/06/06 06:48:11;;;;;;;6.53;2.75;;;;;;;12.43;70.99;102080.31;3584405;40;20029;-78
2021/06/06 06:50:40;;;;;;;7.70;2.80;;;;;;;12.45;70.84;102068.91;3597471;40;20032;-78
2021/06/06 06:53:11;;;;;;;8.73;2.38;;;;;;;12.54;70.66;102070.59;3596111;40;20053;-78
2021/06/06 06:55:41;;;;;;;7.40;2.97;;;;;;;12.62;70.49;102071.41;3595748;40;20032;-78
2021/06/06 06:58:36;;;;;;;9.23;2.97;;;;;;;12.73;68.36;102069.53;3597340;40;20482;-78
2021/06/06 07:01:09;;;;;;;5.57;2.33;;;;;;;12.78;69.99;102074.75;3598619;40;20043;-78
2021/06/06 07:03:36;;;;;;;6.93;2.72;;;;;;;12.83;70.66;102069.47;3596506;40;20064;-79
2021/06/06 07:06:06;;;;;;;11.45;2.80;;;;;;;12.90;70.52;102063.25;3591505;40;175332;-78
2021/06/06 07:08:38;;;;;;;9.45;3.20;;;;;;;12.99;70.50;102064.03;3586219;40;20039;-78
2021/06/06 07:11:07;;;;;;;6.63;2.50;;;;;;;13.05;70.44;102064.84;3603770;40;20033;-78
2021/06/06 07:13:38;;;;;;;9.20;2.67;;;;;;;13.12;70.34;102062.13;3605505;40;20491;-78
2021/06/06 07:16:09;;;;;;;8.98;2.60;;;;;;;13.19;70.12;102066.44;3599155;40;20494;-78
2021/06/06 07:18:38;;;;;;;9.30;2.90;;;;;;;13.25;71.27;102068.13;3590760;40;20491;-78
2021/06/06 07:21:11;;;;;;;6.60;2.38;;;;;;;13.34;71.54;102064.56;3590896;40;20044;-78
2021/06/06 07:23:41;;;;;;;7.45;2.97;;;;;;;13.39;71.03;102071.47;3596247;40;20084;-78
2021/06/06 07:26:15;;;;;;;8.07;3.03;;;;;;;13.50;70.59;102066.94;3596720;40;20041;-78
2021/06/06 07:28:43;;;;;;;5.38;2.28;;;;;;;13.56;70.17;102058.13;3586069;40;20047;-78
2021/06/06 07:31:10;;;;;;;6.60;2.55;;;;;;;13.64;70.00;102068.53;3602340;40;20049;-78
2021/06/06 07:33:51;;;;;;;7.05;3.00;;;;;;;13.74;68.60;102068.38;3597183;40;20044;-78
2021/06/06 07:36:23;;;;;;;7.90;3.00;;;;;;;13.84;69.30;102069.13;3599690;40;20036;-78
2021/06/06 07:38:51;;;;;;;6.82;2.20;;;;;;;13.88;69.71;102069.91;3596179;40;20088;-78
2021/06/06 07:41:24;;;;;;;5.60;2.42;;;;;;;13.97;69.24;102069.78;3589313;40;20383;-78
2021/06/06 07:43:57;;;;;;;6.30;2.63;;;;;;;14.00;69.08;102059.25;3603409;40;20036;-78
2021/06/06 07:46:29;;;;;;;6.50;2.22;;;;;;;14.06;68.87;102064.41;3599456;40;20034;-78
2021/06/06 07:49:02;;;;;;;6.00;1.95;;;;;;;14.13;69.34;102066.03;3586259;40;20732;-78
2021/06/06 07:51:30;;;;;;;8.15;3.42;;;;;;;14.23;69.74;102072.88;3595654;40;20065;-78
2021/06/06 07:54:03;;;;;;;7.00;2.78;;;;;;;14.30;69.18;102068.41;3595193;40;20055;-78
2021/06/06 07:56:30;;;;;;;6.05;2.13;;;;;;;14.37;69.16;102071.81;3586123;40;20380;-78
2021/06/06 07:58:57;;;;;;;6.90;2.60;;;;;;;14.45;68.75;102075.19;3594071;40;20090;-78
2021/06/06 08:01:26;;;;;;;7.80;2.17;;;;;;;14.55;68.51;102076.78;3592261;40;20073;-78
2021/06/06 08:03:53;;;;;;;6.38;2.17;;;;;;;14.59;68.25;102075.81;3592744;40;20136;-78
2021/06/06 08:06:20;;;;;;;7.63;2.65;;;;;;;14.67;68.06;102073.94;3597626;40;20048;-78
2021/06/06 08:08:53;;;;;;;3.65;1.90;;;;;;;14.72;67.99;102064.22;3582302;40;20033;-78
2021/06/06 08:11:21;;;;;;;5.57;2.03;;;;;;;14.77;68.16;102059.72;3594000;40;20048;-78
2021/06/06 08:13:53;;;;;;;7.10;2.50;;;;;;;14.89;67.49;102068.28;3601493;40;20041;-78
2021/06/06 08:16:28;;;;;;;4.25;2.00;;;;;;;14.98;67.30;102073.38;3599518;40;20837;-78
2021/06/06 08:19:21;;;;;;;5.18;2.28;;;;;;;15.09;66.33;102081.91;3597600;40;20033;-78
2021/06/06 08:21:49;;;;;;;3.15;1.45;;;;;;;15.07;66.82;102073.19;3592128;40;20803;-78
2021/06/06 08:24:18;;;;;;;;;;;;;;;15.21;65.30;102065.91;3595821;40;20386;-78
2021/06/06 08:26:45;;;;;;;6.25;1.95;;;;;;;15.17;66.93;102058.97;3580785;40;20708;-78
2021/06/06 08:29:13;;;;;;;5.23;1.90;;;;;;;15.25;66.59;102057.03;3591814;40;20048;-79
2021/06/06 08:31:41;;;;;;;4.35;1.90;;;;;;;15.29;66.72;102058.69;3592507;40;20037;-78
2021/06/06 08:34:12;;;;;;;5.18;2.33;;;;;;;15.32;65.92;102050.75;3596814;40;20489;-78
2021/06/06 08:36:45;;;;;;;5.53;1.77;;;;;;;15.42;66.42;102058.47;3591431;40;20044;-78
2021/06/06 08:39:25;;;;;;;5.03;1.65;;;;;;;15.46;65.72;102052.22;3595054;40;20045;-78
2021/06/06 08:41:59;;;;;;;4.65;1.58;;;;;;;15.52;65.56;102049.47;3585707;40;20858;-78
2021/06/06 08:44:31;;;;;;;7.72;2.03;;;;;;;15.60;64.90;102047.53;3600418;40;20028;-78
2021/06/06 08:47:13;;;;;;;4.75;1.70;;;;;;;15.68;64.10;102043.00;3587648;40;20040;-78
2021/06/06 08:49:48;;;;;;;4.63;1.70;;;;;;;15.73;64.91;102042.91;3592207;40;20040;-78
2021/06/06 08:52:35;;;;;;;5.43;2.00;;;;;;;15.83;64.54;102040.00;3590758;40;20040;-78
2021/06/06 08:55:18;;;;;;;6.15;1.73;;;;;;;15.87;64.85;102040.81;3603594;40;20039;-78
2021/06/06 08:57:52;;;;;;;4.25;1.40;;;;;;;16.00;63.70;102036.09;3592654;40;20298;-78
2021/06/06 09:00:47;;;;;;;3.97;1.73;;;;;;;16.13;63.53;102037.56;3589445;40;20039;-78
2021/06/06 09:03:22;;;;;;;6.57;1.40;;;;;;;16.24;63.21;102034.66;3584739;40;20032;-78
2021/06/06 09:06:08;;;;;;;2.25;1.10;;;;;;;16.41;62.93;102036.84;3594758;40;20090;-78
2021/06/06 09:08:38;;;;;;;4.68;1.77;;;;;;;16.54;62.11;102033.88;3596927;40;20089;-78
2021/06/06 09:11:15;;;;;;;3.58;1.52;;;;;;;16.76;62.42;102028.91;3596967;40;20089;-78
2021/06/06 09:13:45;;;;;;;5.32;1.73;;;;;;;16.91;60.84;102026.75;3592032;40;20758;-78
2021/06/06 09:16:14;;;;;;;5.40;1.77;;;;;;;17.11;60.80;102029.69;3584487;40;20729;-78
2021/06/06 09:18:46;;;;;;;5.55;1.40;;;;;;;17.22;59.80;102027.59;3592929;40;20033;-78
2021/06/06 09:21:22;;;;;;;3.72;1.60;;;;;;;17.45;59.88;102026.94;3595967;40;20040;-79
2021/06/06 09:24:01;;;;;;;4.40;1.70;;;;;;;17.57;58.51;102026.53;3595343;40;20028;-79
2021/06/06 09:26:32;;;;;;;2.10;0.73;;;;;;;17.72;59.11;102030.50;3594340;40;20065;-79
2021/06/06 09:29:16;;;;;;;3.22;1.45;;;;;;;17.88;58.93;102034.41;3600363;40;20032;-79
2021/06/06 09:31:45;;;;;;;4.28;1.70;;;;;;;18.00;57.43;102027.03;3599283;40;20151;-79
2021/06/06 09:34:22;;;;;;;3.33;1.17;;;;;;;18.29;58.40;102018.97;3597256;40;20032;-81
2021/06/06 09:37:16;;;;;;;2.58;1.00;;;;;;;18.66;57.61;102018.56;3601661;40;20036;-82
2021/06/06 09:39:46;;;;;;;3.10;1.23;;;;;;;19.09;55.42;102022.34;3631757;22;20048;-80
2021/06/06 09:42:22;;;;;;;3.28;1.23;;;;;;;19.56;56.12;102026.72;3585107;40;20383;-80
2021/06/06 09:45:05;;;;;;;4.43;1.13;;;;;;;20.04;55.86;102028.38;3572600;40;20331;-80
2021/06/06 09:47:32;;;;;;;3.13;1.27;;;;;;;20.31;53.98;102018.41;3574971;40;20045;-80
2021/06/06 09:50:19;;;;;;;7.78;1.90;;;;;;;20.86;54.31;102024.88;3587853;40;20033;-80
2021/06/06 09:52:55;;;;;;;3.75;1.20;;;;;;;21.30;54.58;102014.03;3583557;40;20060;-80
2021/06/06 09:55:25;;;;;;;5.03;1.45;;;;;;;21.54;52.09;102022.63;3587246;40;20102;-80
2021/06/06 09:58:08;;;;;;;4.53;1.70;;;;;;;22.02;51.99;102034.50;3572300;40;20047;-80
2021/06/06 10:00:40;;;;;;;3.55;1.13;;;;;;;22.14;49.25;102035.72;3586471;40;20118;-81
2021/06/06 10:03:33;;;;;;;3.72;1.45;;;;;;;22.31;51.39;102033.09;3587947;40;20068;-80
2021/06/06 10:06:18;;;;;;;7.18;1.67;;;;;;;22.35;49.04;102026.63;3599751;40;20035;-80
2021/06/06 10:09:00;;;;;;;2.90;1.15;;;;;;;22.35;49.37;102021.31;3584291;40;20037;-80
2021/06/06 10:11:39;;;;;;;4.18;1.38;;;;;;;22.32;47.41;102020.63;3587404;40;20374;-80
2021/06/06 10:14:08;;;;;;;4.78;1.25;;;;;;;22.28;46.63;102022.56;3582823;40;20092;-80
2021/06/06 10:16:45;;;;;;;2.05;1.05;;;;;;;22.32;47.95;102017.97;3583504;40;20037;-80
2021/06/06 10:19:15;;;;;;;3.30;1.30;;;;;;;22.34;45.17;102018.75;3571837;40;20037;-80
2021/06/06 10:21:43;;;;;;;3.72;1.25;;;;;;;22.42;46.32;102012.09;3582281;40;20035;-81
2021/06/06 10:24:43;;;;;;;3.40;1.23;;;;;;;22.86;48.96;102022.22;3585509;40;20562;-80
2021/06/06 10:27:23;;;;;;;1.95;1.15;;;;;;;23.10;46.70;102017.41;3579069;40;20033;-80
2021/06/06 10:30:01;;;;;;;5.47;1.45;;;;;;;23.29;46.20;102009.25;3582427;40;20085;-80
2021/06/06 10:32:40;;;;;;;2.58;1.27;;;;;;;23.44;45.82;102010.22;3591892;40;20041;-80
2021/06/06 10:35:29;;;;;;;2.75;1.38;;;;;;;23.56;46.36;102013.03;3581764;40;20513;-80
2021/06/06 10:38:00;;;;;;;2.83;0.88;;;;;;;23.59;44.69;102011.16;3598894;40;20062;-81
2021/06/06 10:40:50;;;;;;;1.60;0.82;;;;;;;23.72;45.89;102014.84;3583600;40;20045;-80
2021/06/06 10:43:48;;;;;;;3.55;1.60;;;;;;;23.77;45.50;102010.13;3573937;40;20710;-80
2021/06/06 10:46:25;;;;;;;3.03;1.42;;;;;;;23.72;43.92;102002.41;3584212;40;20350;-80
2021/06/06 10:49:08;;;;;;;2.28;1.20;;;;;;;23.65;43.16;102008.16;3591019;40;20033;-79
2021/06/06 10:52:05;;;;;;;3.13;1.17;;;;;;;23.75;45.43;102006.69;3592601;40;20092;-80
2021/06/06 10:54:34;;;;;;;3.67;1.30;;;;;;;23.75;43.43;102007.56;3593439;40;20723;-80
2021/06/06 10:57:10;;;;;;;3.17;1.23;;;;;;;23.87;44.76;102008.66;3570379;40;20392;-80
2021/06/06 10:59:50;;;;;;;3.08;1.30;;;;;;;24.06;44.66;102009.28;3584762;40;20045;-80
2021/06/06 11:02:32;;;;;;;4.05;1.20;;;;;;;24.43;44.92;102007.16;3580380;40;20500;-81
2021/06/06 11:05:03;;;;;;;2.58;1.10;;;;;;;24.77;40.88;102005.09;3581280;40;20048;-81
2021/06/06 11:07:30;;;;;;;3.13;1.40;;;;;;;25.25;40.68;102000.34;3589292;40;20037;-81
2021/06/06 11:10:21;;;;;;;4.32;1.17;;;;;;;25.99;42.49;101999.91;3576778;40;20396;-80
2021/06/06 11:12:51;;;;;;;3.25;1.10;;;;;;;26.46;39.09;101995.00;3583809;40;20045;-81
2021/06/06 11:15:36;;;;;;;3.17;1.10;;;;;;;26.95;41.25;101999.59;3571999;40;20033;-80
2021/06/06 11:18:17;;;;;;;3.30;1.17;;;;;;;27.15;40.44;101999.91;3583625;40;20057;-81
2021/06/06 11:21:05;;;;;;;2.72;1.35;;;;;;;27.46;40.58;102004.88;3589535;40;20037;-81
2021/06/06 11:23:40;;;;;;;2.00;1.00;;;;;;;27.70;38.96;102002.22;3581141;40;20049;-81
2021/06/06 11:26:36;;;;;;;2.17;1.00;;;;;;;28.04;38.64;102004.09;3580772;40;20064;-81
2021/06/06 11:29:19;;;;;;;1.17;0.90;;;;;;;28.25;39.17;102006.13;3579692;40;20036;-80
2021/06/06 11:32:18;;;;;;;2.50;0.98;;;;;;;28.46;38.18;101996.44;3582444;40;20073;-80
2021/06/06 11:35:12;;;;;;;6.05;1.38;;;;;;;28.50;36.46;101999.75;3576725;40;20041;-80
2021/06/06 11:37:47;;;;;;;2.08;1.00;;;;;;;28.51;36.28;101999.63;3581111;40;20033;-79
2021/06/06 11:40:41;;;;;;;3.85;1.30;;;;;;;28.49;36.81;102000.69;3579970;40;20499;-80
2021/06/06 11:43:29;;;;;;;2.15;1.10;;;;;;;28.33;36.09;101998.31;3579244;40;20047;-80
2021/06/06 11:46:13;;;;;;;1.90;1.02;;;;;;;28.23;36.39;102000.00;3578516;40;20039;-80
2021/06/06 11:48:56;;;;;;;1.80;0.80;;;;;;;28.04;34.63;101995.19;3579611;40;20551;-80
2021/06/06 11:51:32;;;;;;;2.13;0.82;;;;;;;27.94;34.61;102003.09;3578074;40;20357;-80
2021/06/06 11:54:07;;;;;;;2.15;0.88;;;;;;;27.86;34.58;101992.06;3583252;40;20036;-80
2021/06/06 11:56:40;;;;;;;4.85;1.30;;;;;;;27.79;34.37;101998.88;3577237;40;20529;-80
2021/06/06 11:59:22;;;;;;;2.72;1.08;;;;;;;27.72;35.25;101994.91;3576400;40;20111;-80
2021/06/06 12:01:54;;;;;;;1.83;1.13;;;;;;;27.71;34.32;101990.53;3592952;40;20050;-80
2021/06/06 12:04:32;;;;;;;2.80;1.10;;;;;;;27.90;33.98;101990.88;3576065;40;20026;-80
2021/06/06 12:07:10;;;;;;;4.55;1.70;;;;;;;28.03;35.92;101983.59;3585153;40;20076;-80